sensor_id;sensor_type;location;lat;lon;timestamp;temperature;humidity
2611;DHT22;5612;51.134;17.058;2023-06-26T00:01:41;19.00;1.00
2611;DHT22;5612;51.134;17.058;2023-06-26T00:04:10;18.90;1.00
2611;DHT22;5612;51.134;17.058;2023-06-26T00:06:42;19.10;99.90
2611;DHT22;5612;51.134;17.058;2023-06-26T00:09:11;19.10;99.90
2611;DHT22;5612;51.134;17.058;2023-06-26T00:11:40;19.10;1.00
2611;DHT22;5612;51.134;17.058;2023-06-26T00:14:09;18.90;1.00
2611;DHT22;5612;51.134;17.058;2023-06-26T00:16:40;18.80;1.00
2611;DHT22;5612;51.134;17.058;2023-06-26T00:19:09;18.80;1.00
2611;DHT22;5612;51.134;17.058;2023-06-26T00:21:38;18.80;1.00
2611;DHT22;5612;51.134;17.058;2023-06-26T00:24:08;18.80;1.00
2611;DHT22;5612;51.134;17.058;2023-06-26T00:26:37;18.80;1.00
2611;DHT22;5612;51.134;17.058;2023-06-26T00:29:05;18.80;1.00
2611;DHT22;5612;51.134;17.058;2023-06-26T00:31:34;18.80;1.00
2611;DHT22;5612;51.134;17.058;2023-06-26T00:34:05;18.80;1.00
2611;DHT22;5612;51.134;17.058;2023-06-26T00:36:34;18.80;1.00
2611;DHT22;5612;51.134;17.058;2023-06-26T00:39:03;18.80;1.00
2611;DHT22;5612;51.134;17.058;2023-06-26T00:41:32;18.80;1.00
2611;DHT22;5612;51.134;17.058;2023-06-26T00:44:01;18.70;1.00
2611;DHT22;5612;51.134;17.058;2023-06-26T00:46:31;18.70;1.00
2611;DHT22;5612;51.134;17.058;2023-06-26T00:49:02;18.70;1.00
2611;DHT22;5612;51.134;17.058;2023-06-26T00:51:33;18.70;1.00
2611;DHT22;5612;51.134;17.058;2023-06-26T00:54:02;18.60;1.00
2611;DHT22;5612;51.134;17.058;2023-06-26T00:56:31;18.60;1.00
2611;DHT22;5612;51.134;17.058;2023-06-26T00:59:01;18.60;1.00
2611;DHT22;5612;51.134;17.058;2023-06-26T01:01:30;18.60;1.00
2611;DHT22;5612;51.134;17.058;2023-06-26T01:03:59;18.60;1.00
2611;DHT22;5612;51.134;17.058;2023-06-26T01:06:28;18.60;1.00
2611;DHT22;5612;51.134;17.058;2023-06-26T01:09:00;18.50;1.00
2611;DHT22;5612;51.134;17.058;2023-06-26T01:11:29;18.50;1.00
2611;DHT22;5612;51.134;17.058;2023-06-26T01:14:00;18.50;1.00
2611;DHT22;5612;51.134;17.058;2023-06-26T01:16:30;18.40;1.00
2611;DHT22;5612;51.134;17.058;2023-06-26T01:18:59;18.40;1.00
2611;DHT22;5612;51.134;17.058;2023-06-26T01:21:28;18.30;1.00
2611;DHT22;5612;51.134;17.058;2023-06-26T01:24:09;18.30;1.00
2611;DHT22;5612;51.134;17.058;2023-06-26T01:26:50;18.20;1.00
2611;DHT22;5612;51.134;17.058;2023-06-26T01:29:21;18.30;1.00
2611;DHT22;5612;51.134;17.058;2023-06-26T01:31:50;18.20;1.00
2611;DHT22;5612;51.134;17.058;2023-06-26T01:34:20;18.20;1.00
2611;DHT22;5612;51.134;17.058;2023-06-26T01:36:49;18.20;1.00
2611;DHT22;5612;51.134;17.058;2023-06-26T01:39:19;18.20;1.00
2611;DHT22;5612;51.134;17.058;2023-06-26T01:41:49;18.20;1.00
2611;DHT22;5612;51.134;17.058;2023-06-26T01:44:26;18.20;1.00
2611;DHT22;5612;51.134;17.058;2023-06-26T01:47:00;18.20;1.00
2611;DHT22;5612;51.134;17.058;2023-06-26T01:49:38;18.20;1.00
2611;DHT22;5612;51.134;17.058;2023-06-26T01:52:16;18.10;1.00
2611;DHT22;5612;51.134;17.058;2023-06-26T01:54:54;18.10;1.00
2611;DHT22;5612;51.134;17.058;2023-06-26T01:57:26;18.10;1.00
2611;DHT22;5612;51.134;17.058;2023-06-26T01:59:56;18.00;1.00
2611;DHT22;5612;51.134;17.058;2023-06-26T02:02:27;18.00;1.00
2611;DHT22;5612;51.134;17.058;2023-06-26T02:04:57;18.00;1.00
2611;DHT22;5612;51.134;17.058;2023-06-26T02:07:26;18.00;1.00
2611;DHT22;5612;51.134;17.058;2023-06-26T02:09:55;18.00;1.00
2611;DHT22;5612;51.134;17.058;2023-06-26T02:12:25;17.90;1.00
2611;DHT22;5612;51.134;17.058;2023-06-26T02:14:54;17.90;1.00
2611;DHT22;5612;51.134;17.058;2023-06-26T02:17:23;17.80;1.00
2611;DHT22;5612;51.134;17.058;2023-06-26T02:19:57;17.90;1.00
2611;DHT22;5612;51.134;17.058;2023-06-26T02:22:30;17.90;1.00
2611;DHT22;5612;51.134;17.058;2023-06-26T02:24:58;17.80;1.00
2611;DHT22;5612;51.134;17.058;2023-06-26T02:27:29;17.90;1.00
2611;DHT22;5612;51.134;17.058;2023-06-26T02:29:57;17.80;8.20
2611;DHT22;5612;51.134;17.058;2023-06-26T02:32:26;17.80;30.80
2611;DHT22;5612;51.134;17.058;2023-06-26T02:34:55;17.80;36.20
2611;DHT22;5612;51.134;17.058;2023-06-26T02:37:24;17.80;22.30
2611;DHT22;5612;51.134;17.058;2023-06-26T02:39:53;17.80;15.90
2611;DHT22;5612;51.134;17.058;2023-06-26T02:42:22;17.80;29.40
2611;DHT22;5612;51.134;17.058;2023-06-26T02:44:52;17.80;32.40
2611;DHT22;5612;51.134;17.058;2023-06-26T02:47:21;17.80;34.30
2611;DHT22;5612;51.134;17.058;2023-06-26T02:49:50;17.80;35.80
2611;DHT22;5612;51.134;17.058;2023-06-26T02:52:19;17.80;30.50
2611;DHT22;5612;51.134;17.058;2023-06-26T02:54:48;17.80;28.10
2611;DHT22;5612;51.134;17.058;2023-06-26T02:57:17;17.90;8.80
2611;DHT22;5612;51.134;17.058;2023-06-26T02:59:46;17.80;15.80
2611;DHT22;5612;51.134;17.058;2023-06-26T03:02:16;17.80;4.10
2611;DHT22;5612;51.134;17.058;2023-06-26T03:04:45;17.80;4.50
2611;DHT22;5612;51.134;17.058;2023-06-26T03:07:14;17.80;9.00
2611;DHT22;5612;51.134;17.058;2023-06-26T03:09:43;17.80;1.00
2611;DHT22;5612;51.134;17.058;2023-06-26T03:12:12;17.80;2.50
2611;DHT22;5612;51.134;17.058;2023-06-26T03:14:41;17.80;1.00
2611;DHT22;5612;51.134;17.058;2023-06-26T03:17:13;17.80;9.10
2611;DHT22;5612;51.134;17.058;2023-06-26T03:19:43;17.80;11.00
2611;DHT22;5612;51.134;17.058;2023-06-26T03:22:12;17.80;1.60
2611;DHT22;5612;51.134;17.058;2023-06-26T03:24:41;17.80;1.00
2611;DHT22;5612;51.134;17.058;2023-06-26T03:27:10;17.90;1.00
2611;DHT22;5612;51.134;17.058;2023-06-26T03:29:39;17.80;1.00
2611;DHT22;5612;51.134;17.058;2023-06-26T03:32:08;17.90;1.00
2611;DHT22;5612;51.134;17.058;2023-06-26T03:34:37;17.90;1.00
2611;DHT22;5612;51.134;17.058;2023-06-26T03:37:07;18.00;1.00
2611;DHT22;5612;51.134;17.058;2023-06-26T03:39:36;18.00;1.00
2611;DHT22;5612;51.134;17.058;2023-06-26T03:42:06;18.10;1.00
2611;DHT22;5612;51.134;17.058;2023-06-26T03:44:35;18.10;1.00
2611;DHT22;5612;51.134;17.058;2023-06-26T03:47:04;18.10;1.00
2611;DHT22;5612;51.134;17.058;2023-06-26T03:49:33;18.20;1.00
2611;DHT22;5612;51.134;17.058;2023-06-26T03:52:02;18.20;1.00
2611;DHT22;5612;51.134;17.058;2023-06-26T03:54:33;18.30;1.00
2611;DHT22;5612;51.134;17.058;2023-06-26T03:57:02;18.30;1.00
2611;DHT22;5612;51.134;17.058;2023-06-26T03:59:31;18.40;1.00
2611;DHT22;5612;51.134;17.058;2023-06-26T04:01:59;18.40;1.00
2611;DHT22;5612;51.134;17.058;2023-06-26T04:04:28;18.40;1.00
2611;DHT22;5612;51.134;17.058;2023-06-26T04:06:57;18.50;1.00
2611;DHT22;5612;51.134;17.058;2023-06-26T04:09:27;18.60;1.00
2611;DHT22;5612;51.134;17.058;2023-06-26T04:11:57;18.50;1.00
2611;DHT22;5612;51.134;17.058;2023-06-26T04:14:26;18.60;1.00
2611;DHT22;5612;51.134;17.058;2023-06-26T04:16:55;18.60;1.00
2611;DHT22;5612;51.134;17.058;2023-06-26T04:19:25;18.80;1.00
2611;DHT22;5612;51.134;17.058;2023-06-26T04:21:54;18.80;1.00
2611;DHT22;5612;51.134;17.058;2023-06-26T04:24:23;18.80;1.00
2611;DHT22;5612;51.134;17.058;2023-06-26T04:26:52;18.90;99.90
2611;DHT22;5612;51.134;17.058;2023-06-26T04:29:26;19.00;99.90
2611;DHT22;5612;51.134;17.058;2023-06-26T04:31:55;18.90;1.00
2611;DHT22;5612;51.134;17.058;2023-06-26T04:34:26;18.80;99.90
2611;DHT22;5612;51.134;17.058;2023-06-26T04:36:55;19.00;41.10
2611;DHT22;5612;51.134;17.058;2023-06-26T04:39:23;19.10;1.00
2611;DHT22;5612;51.134;17.058;2023-06-26T04:41:52;19.30;99.90
2611;DHT22;5612;51.134;17.058;2023-06-26T04:44:21;19.30;1.00
2611;DHT22;5612;51.134;17.058;2023-06-26T04:46:52;19.40;99.90
2611;DHT22;5612;51.134;17.058;2023-06-26T04:49:20;19.40;99.90
2611;DHT22;5612;51.134;17.058;2023-06-26T04:51:49;19.40;99.90
2611;DHT22;5612;51.134;17.058;2023-06-26T04:54:19;19.40;97.30
2611;DHT22;5612;51.134;17.058;2023-06-26T04:56:48;19.40;99.90
2611;DHT22;5612;51.134;17.058;2023-06-26T04:59:17;19.40;99.90
2611;DHT22;5612;51.134;17.058;2023-06-26T05:01:46;19.50;99.90
2611;DHT22;5612;51.134;17.058;2023-06-26T05:04:17;19.50;99.90
2611;DHT22;5612;51.134;17.058;2023-06-26T05:06:45;19.50;1.00
2611;DHT22;5612;51.134;17.058;2023-06-26T05:09:15;19.50;1.00
2611;DHT22;5612;51.134;17.058;2023-06-26T05:11:43;19.70;99.90
2611;DHT22;5612;51.134;17.058;2023-06-26T05:14:12;19.70;1.00
2611;DHT22;5612;51.134;17.058;2023-06-26T05:16:41;19.60;17.00
2611;DHT22;5612;51.134;17.058;2023-06-26T05:19:10;19.80;1.00
2611;DHT22;5612;51.134;17.058;2023-06-26T05:21:42;19.90;99.90
2611;DHT22;5612;51.134;17.058;2023-06-26T05:24:13;19.90;1.00
2611;DHT22;5612;51.134;17.058;2023-06-26T05:26:42;20.00;99.90
2611;DHT22;5612;51.134;17.058;2023-06-26T05:29:12;20.00;99.90
2611;DHT22;5612;51.134;17.058;2023-06-26T05:31:42;20.30;99.90
2611;DHT22;5612;51.134;17.058;2023-06-26T05:34:13;20.40;1.20
2611;DHT22;5612;51.134;17.058;2023-06-26T05:36:44;20.50;1.00
2611;DHT22;5612;51.134;17.058;2023-06-26T05:39:13;20.70;1.00
2611;DHT22;5612;51.134;17.058;2023-06-26T05:41:45;20.80;1.00
2611;DHT22;5612;51.134;17.058;2023-06-26T05:44:14;20.90;1.00
2611;DHT22;5612;51.134;17.058;2023-06-26T05:46:43;20.80;1.00
2611;DHT22;5612;51.134;17.058;2023-06-26T05:49:12;20.80;1.00
2611;DHT22;5612;51.134;17.058;2023-06-26T05:51:44;20.90;1.00
2611;DHT22;5612;51.134;17.058;2023-06-26T05:54:16;21.10;1.00
2611;DHT22;5612;51.134;17.058;2023-06-26T05:56:46;21.30;99.90
2611;DHT22;5612;51.134;17.058;2023-06-26T05:59:22;21.20;99.90
2611;DHT22;5612;51.134;17.058;2023-06-26T06:02:00;21.10;99.90
2611;DHT22;5612;51.134;17.058;2023-06-26T06:04:29;21.40;99.90
2611;DHT22;5612;51.134;17.058;2023-06-26T06:07:00;21.40;99.90
2611;DHT22;5612;51.134;17.058;2023-06-26T06:09:29;21.50;99.90
2611;DHT22;5612;51.134;17.058;2023-06-26T06:11:59;21.50;99.90
2611;DHT22;5612;51.134;17.058;2023-06-26T06:14:28;21.60;99.90
2611;DHT22;5612;51.134;17.058;2023-06-26T06:16:58;21.60;99.90
2611;DHT22;5612;51.134;17.058;2023-06-26T06:19:27;21.70;99.90
2611;DHT22;5612;51.134;17.058;2023-06-26T06:21:56;21.70;99.90
2611;DHT22;5612;51.134;17.058;2023-06-26T06:24:26;22.00;99.90
2611;DHT22;5612;51.134;17.058;2023-06-26T06:26:56;22.00;99.90
2611;DHT22;5612;51.134;17.058;2023-06-26T06:29:28;22.10;99.90
2611;DHT22;5612;51.134;17.058;2023-06-26T06:31:57;22.40;99.90
2611;DHT22;5612;51.134;17.058;2023-06-26T06:34:25;22.50;99.90
2611;DHT22;5612;51.134;17.058;2023-06-26T06:36:54;22.50;99.90
2611;DHT22;5612;51.134;17.058;2023-06-26T06:39:23;22.50;99.90
2611;DHT22;5612;51.134;17.058;2023-06-26T06:41:53;22.50;58.10
2611;DHT22;5612;51.134;17.058;2023-06-26T06:44:22;22.70;99.90
2611;DHT22;5612;51.134;17.058;2023-06-26T06:46:51;22.90;81.50
2611;DHT22;5612;51.134;17.058;2023-06-26T06:49:20;23.00;4.80
2611;DHT22;5612;51.134;17.058;2023-06-26T06:51:48;23.00;1.00
2611;DHT22;5612;51.134;17.058;2023-06-26T06:54:17;23.20;1.00
2611;DHT22;5612;51.134;17.058;2023-06-26T06:56:47;23.30;1.00
2611;DHT22;5612;51.134;17.058;2023-06-26T06:59:17;23.50;1.00
2611;DHT22;5612;51.134;17.058;2023-06-26T07:01:46;23.80;1.00
2611;DHT22;5612;51.134;17.058;2023-06-26T07:04:14;24.30;1.00
2611;DHT22;5612;51.134;17.058;2023-06-26T07:06:43;24.70;1.00
2611;DHT22;5612;51.134;17.058;2023-06-26T07:09:12;25.40;1.00
2611;DHT22;5612;51.134;17.058;2023-06-26T07:11:42;26.00;1.00
2611;DHT22;5612;51.134;17.058;2023-06-26T07:14:10;26.60;1.00
2611;DHT22;5612;51.134;17.058;2023-06-26T07:16:41;27.30;1.00
2611;DHT22;5612;51.134;17.058;2023-06-26T07:19:09;28.10;1.00
2611;DHT22;5612;51.134;17.058;2023-06-26T07:21:38;28.80;1.00
2611;DHT22;5612;51.134;17.058;2023-06-26T07:24:08;29.40;1.00
2611;DHT22;5612;51.134;17.058;2023-06-26T07:26:37;29.90;1.00
2611;DHT22;5612;51.134;17.058;2023-06-26T07:29:12;30.50;1.00
2611;DHT22;5612;51.134;17.058;2023-06-26T07:31:42;31.40;1.00
2611;DHT22;5612;51.134;17.058;2023-06-26T07:34:12;31.70;1.00
2611;DHT22;5612;51.134;17.058;2023-06-26T07:36:41;31.90;1.00
2611;DHT22;5612;51.134;17.058;2023-06-26T07:39:10;32.40;1.00
2611;DHT22;5612;51.134;17.058;2023-06-26T07:41:45;32.80;1.00
2611;DHT22;5612;51.134;17.058;2023-06-26T07:44:14;33.30;1.00
2611;DHT22;5612;51.134;17.058;2023-06-26T07:46:44;33.40;1.00
2611;DHT22;5612;51.134;17.058;2023-06-26T07:49:13;33.70;1.00
2611;DHT22;5612;51.134;17.058;2023-06-26T07:51:42;34.20;1.00
2611;DHT22;5612;51.134;17.058;2023-06-26T07:54:11;34.50;1.00
2611;DHT22;5612;51.134;17.058;2023-06-26T07:56:53;34.60;1.00
2611;DHT22;5612;51.134;17.058;2023-06-26T07:59:23;34.80;1.00
2611;DHT22;5612;51.134;17.058;2023-06-26T08:01:55;35.60;1.00
2611;DHT22;5612;51.134;17.058;2023-06-26T08:04:25;35.80;1.00
2611;DHT22;5612;51.134;17.058;2023-06-26T08:06:55;36.10;1.00
2611;DHT22;5612;51.134;17.058;2023-06-26T08:09:28;36.20;1.00
2611;DHT22;5612;51.134;17.058;2023-06-26T08:12:15;36.30;1.00
2611;DHT22;5612;51.134;17.058;2023-06-26T08:14:56;37.20;1.00
2611;DHT22;5612;51.134;17.058;2023-06-26T08:17:40;37.70;1.00
2611;DHT22;5612;51.134;17.058;2023-06-26T08:20:18;36.70;1.00
2611;DHT22;5612;51.134;17.058;2023-06-26T08:23:01;36.70;1.00
2611;DHT22;5612;51.134;17.058;2023-06-26T08:25:42;36.80;1.00
2611;DHT22;5612;51.134;17.058;2023-06-26T08:28:26;36.40;1.00
2611;DHT22;5612;51.134;17.058;2023-06-26T08:31:10;36.20;1.00
2611;DHT22;5612;51.134;17.058;2023-06-26T08:33:52;36.00;1.00
2611;DHT22;5612;51.134;17.058;2023-06-26T08:36:33;35.60;1.00
2611;DHT22;5612;51.134;17.058;2023-06-26T08:39:07;35.90;1.00
2611;DHT22;5612;51.134;17.058;2023-06-26T08:41:36;36.30;1.00
2611;DHT22;5612;51.134;17.058;2023-06-26T08:44:05;37.30;1.00
2611;DHT22;5612;51.134;17.058;2023-06-26T08:46:34;38.10;1.00
2611;DHT22;5612;51.134;17.058;2023-06-26T08:49:11;39.10;1.00
2611;DHT22;5612;51.134;17.058;2023-06-26T08:51:52;40.10;1.00
2611;DHT22;5612;51.134;17.058;2023-06-26T08:54:30;39.40;1.00
2611;DHT22;5612;51.134;17.058;2023-06-26T08:57:06;39.30;1.00
2611;DHT22;5612;51.134;17.058;2023-06-26T08:59:37;39.80;1.00
2611;DHT22;5612;51.134;17.058;2023-06-26T09:02:07;40.30;1.00
2611;DHT22;5612;51.134;17.058;2023-06-26T09:04:39;40.10;1.00
2611;DHT22;5612;51.134;17.058;2023-06-26T09:07:08;40.50;1.00
2611;DHT22;5612;51.134;17.058;2023-06-26T09:09:37;41.30;1.00
2611;DHT22;5612;51.134;17.058;2023-06-26T09:12:07;41.00;1.00
2611;DHT22;5612;51.134;17.058;2023-06-26T09:14:37;40.70;1.00
2611;DHT22;5612;51.134;17.058;2023-06-26T09:17:06;41.30;1.00
2611;DHT22;5612;51.134;17.058;2023-06-26T09:19:38;42.10;1.00
2611;DHT22;5612;51.134;17.058;2023-06-26T09:22:11;43.30;1.00
2611;DHT22;5612;51.134;17.058;2023-06-26T09:24:42;42.60;1.00
2611;DHT22;5612;51.134;17.058;2023-06-26T09:27:12;41.00;1.00
2611;DHT22;5612;51.134;17.058;2023-06-26T09:29:41;40.70;1.00
2611;DHT22;5612;51.134;17.058;2023-06-26T09:32:10;40.50;1.00
2611;DHT22;5612;51.134;17.058;2023-06-26T09:34:42;40.50;1.00
2611;DHT22;5612;51.134;17.058;2023-06-26T09:37:12;40.90;1.00
2611;DHT22;5612;51.134;17.058;2023-06-26T09:39:42;41.40;1.00
2611;DHT22;5612;51.134;17.058;2023-06-26T09:42:13;41.70;1.00
2611;DHT22;5612;51.134;17.058;2023-06-26T09:44:44;41.40;1.00
2611;DHT22;5612;51.134;17.058;2023-06-26T09:47:16;41.00;1.00
2611;DHT22;5612;51.134;17.058;2023-06-26T09:49:46;41.60;1.00
2611;DHT22;5612;51.134;17.058;2023-06-26T09:52:16;42.40;1.00
2611;DHT22;5612;51.134;17.058;2023-06-26T09:54:46;43.20;1.00
2611;DHT22;5612;51.134;17.058;2023-06-26T09:57:17;43.30;1.00
2611;DHT22;5612;51.134;17.058;2023-06-26T09:59:46;42.90;1.00
2611;DHT22;5612;51.134;17.058;2023-06-26T10:02:14;43.20;1.00
2611;DHT22;5612;51.134;17.058;2023-06-26T10:04:45;43.00;1.00
2611;DHT22;5612;51.134;17.058;2023-06-26T10:07:15;42.60;1.00
2611;DHT22;5612;51.134;17.058;2023-06-26T10:09:46;42.50;1.00
2611;DHT22;5612;51.134;17.058;2023-06-26T10:12:19;43.00;1.00
2611;DHT22;5612;51.134;17.058;2023-06-26T10:14:48;42.20;1.00
2611;DHT22;5612;51.134;17.058;2023-06-26T10:17:20;40.90;1.00
2611;DHT22;5612;51.134;17.058;2023-06-26T10:19:51;39.80;1.00
2611;DHT22;5612;51.134;17.058;2023-06-26T10:22:22;40.10;1.00
2611;DHT22;5612;51.134;17.058;2023-06-26T10:24:56;39.10;1.00
2611;DHT22;5612;51.134;17.058;2023-06-26T10:27:29;38.60;1.00
2611;DHT22;5612;51.134;17.058;2023-06-26T10:30:04;39.10;1.00
2611;DHT22;5612;51.134;17.058;2023-06-26T10:32:34;39.60;1.00
2611;DHT22;5612;51.134;17.058;2023-06-26T10:35:08;40.00;1.00
2611;DHT22;5612;51.134;17.058;2023-06-26T10:37:42;40.70;1.00
2611;DHT22;5612;51.134;17.058;2023-06-26T10:40:12;39.90;1.00
2611;DHT22;5612;51.134;17.058;2023-06-26T10:42:42;39.10;1.00
2611;DHT22;5612;51.134;17.058;2023-06-26T10:45:14;39.00;1.00
2611;DHT22;5612;51.134;17.058;2023-06-26T10:47:47;38.60;1.00
2611;DHT22;5612;51.134;17.058;2023-06-26T10:50:24;38.10;1.00
2611;DHT22;5612;51.134;17.058;2023-06-26T10:53:11;38.90;1.00
2611;DHT22;5612;51.134;17.058;2023-06-26T10:55:48;40.30;1.00
2611;DHT22;5612;51.134;17.058;2023-06-26T10:58:32;39.60;1.00
2611;DHT22;5612;51.134;17.058;2023-06-26T11:01:17;38.60;1.00
2611;DHT22;5612;51.134;17.058;2023-06-26T11:03:48;39.60;1.00
2611;DHT22;5612;51.134;17.058;2023-06-26T11:06:21;40.50;1.00
2611;DHT22;5612;51.134;17.058;2023-06-26T11:08:50;41.10;1.00
2611;DHT22;5612;51.134;17.058;2023-06-26T11:11:21;40.90;1.00
2611;DHT22;5612;51.134;17.058;2023-06-26T11:13:50;41.50;1.00
2611;DHT22;5612;51.134;17.058;2023-06-26T11:16:19;41.90;1.00
2611;DHT22;5612;51.134;17.058;2023-06-26T11:18:49;42.30;1.00
2611;DHT22;5612;51.134;17.058;2023-06-26T11:21:21;43.20;1.00
2611;DHT22;5612;51.134;17.058;2023-06-26T11:23:52;42.90;1.00
2611;DHT22;5612;51.134;17.058;2023-06-26T11:26:25;41.50;1.00
2611;DHT22;5612;51.134;17.058;2023-06-26T11:28:55;41.50;1.00
2611;DHT22;5612;51.134;17.058;2023-06-26T11:31:25;42.70;1.00
2611;DHT22;5612;51.134;17.058;2023-06-26T11:33:55;43.10;1.00
2611;DHT22;5612;51.134;17.058;2023-06-26T11:36:26;42.20;1.00
2611;DHT22;5612;51.134;17.058;2023-06-26T11:38:55;42.80;1.00
2611;DHT22;5612;51.134;17.058;2023-06-26T11:41:27;43.60;1.00
2611;DHT22;5612;51.134;17.058;2023-06-26T11:44:00;43.80;1.00
2611;DHT22;5612;51.134;17.058;2023-06-26T11:46:31;43.90;1.00
2611;DHT22;5612;51.134;17.058;2023-06-26T11:49:03;44.10;1.00
2611;DHT22;5612;51.134;17.058;2023-06-26T11:51:34;44.60;1.00
2611;DHT22;5612;51.134;17.058;2023-06-26T11:54:04;44.80;1.00
2611;DHT22;5612;51.134;17.058;2023-06-26T11:56:32;45.00;1.00
2611;DHT22;5612;51.134;17.058;2023-06-26T11:59:03;45.00;1.00
2611;DHT22;5612;51.134;17.058;2023-06-26T12:01:37;42.90;1.00
2611;DHT22;5612;51.134;17.058;2023-06-26T12:04:08;40.80;1.00
2611;DHT22;5612;51.134;17.058;2023-06-26T12:06:40;41.30;1.00
2611;DHT22;5612;51.134;17.058;2023-06-26T12:09:10;42.50;1.00
2611;DHT22;5612;51.134;17.058;2023-06-26T12:11:41;43.40;1.00
2611;DHT22;5612;51.134;17.058;2023-06-26T12:14:11;43.50;1.00
2611;DHT22;5612;51.134;17.058;2023-06-26T12:16:43;42.80;1.00
2611;DHT22;5612;51.134;17.058;2023-06-26T12:19:13;41.20;1.00
2611;DHT22;5612;51.134;17.058;2023-06-26T12:21:49;41.00;1.00
2611;DHT22;5612;51.134;17.058;2023-06-26T12:24:21;42.20;1.00
2611;DHT22;5612;51.134;17.058;2023-06-26T12:26:51;42.00;1.00
2611;DHT22;5612;51.134;17.058;2023-06-26T12:29:21;41.50;1.00
2611;DHT22;5612;51.134;17.058;2023-06-26T12:31:51;41.10;1.00
2611;DHT22;5612;51.134;17.058;2023-06-26T12:34:26;40.00;1.00
2611;DHT22;5612;51.134;17.058;2023-06-26T12:37:01;39.90;1.00
2611;DHT22;5612;51.134;17.058;2023-06-26T12:39:46;39.10;1.00
2611;DHT22;5612;51.134;17.058;2023-06-26T12:42:16;38.10;1.00
2611;DHT22;5612;51.134;17.058;2023-06-26T12:44:45;38.70;1.00
2611;DHT22;5612;51.134;17.058;2023-06-26T12:47:15;39.30;1.00
2611;DHT22;5612;51.134;17.058;2023-06-26T12:49:45;40.00;1.00
2611;DHT22;5612;51.134;17.058;2023-06-26T12:52:20;40.80;1.00
2611;DHT22;5612;51.134;17.058;2023-06-26T12:54:52;41.80;1.00
2611;DHT22;5612;51.134;17.058;2023-06-26T12:57:21;43.50;1.00
2611;DHT22;5612;51.134;17.058;2023-06-26T12:59:50;45.10;1.00
2611;DHT22;5612;51.134;17.058;2023-06-26T13:02:19;46.10;1.00
2611;DHT22;5612;51.134;17.058;2023-06-26T13:04:49;43.70;1.00
2611;DHT22;5612;51.134;17.058;2023-06-26T13:07:19;42.80;1.00
2611;DHT22;5612;51.134;17.058;2023-06-26T13:09:48;42.40;1.00
2611;DHT22;5612;51.134;17.058;2023-06-26T13:12:17;42.80;1.00
2611;DHT22;5612;51.134;17.058;2023-06-26T13:14:46;43.40;1.00
2611;DHT22;5612;51.134;17.058;2023-06-26T13:17:15;42.90;1.00
2611;DHT22;5612;51.134;17.058;2023-06-26T13:19:44;42.90;1.00
2611;DHT22;5612;51.134;17.058;2023-06-26T13:22:13;43.10;1.00
2611;DHT22;5612;51.134;17.058;2023-06-26T13:24:48;43.10;1.00
2611;DHT22;5612;51.134;17.058;2023-06-26T13:27:22;41.00;1.00
2611;DHT22;5612;51.134;17.058;2023-06-26T13:29:50;40.90;1.00
2611;DHT22;5612;51.134;17.058;2023-06-26T13:32:20;40.80;1.00
2611;DHT22;5612;51.134;17.058;2023-06-26T13:34:52;40.70;1.00
2611;DHT22;5612;51.134;17.058;2023-06-26T13:37:30;42.20;1.00
2611;DHT22;5612;51.134;17.058;2023-06-26T13:40:03;42.80;1.00
2611;DHT22;5612;51.134;17.058;2023-06-26T13:42:37;42.80;1.00
2611;DHT22;5612;51.134;17.058;2023-06-26T13:45:08;42.30;1.00
2611;DHT22;5612;51.134;17.058;2023-06-26T13:47:56;41.10;1.00
2611;DHT22;5612;51.134;17.058;2023-06-26T13:50:25;40.70;1.00
2611;DHT22;5612;51.134;17.058;2023-06-26T13:53:14;40.90;1.00
2611;DHT22;5612;51.134;17.058;2023-06-26T13:55:45;42.30;1.00
2611;DHT22;5612;51.134;17.058;2023-06-26T13:58:16;42.50;1.00
2611;DHT22;5612;51.134;17.058;2023-06-26T14:00:49;41.80;1.00
2611;DHT22;5612;51.134;17.058;2023-06-26T14:03:20;41.50;1.00
2611;DHT22;5612;51.134;17.058;2023-06-26T14:05:49;41.40;1.00
2611;DHT22;5612;51.134;17.058;2023-06-26T14:08:18;40.90;1.00
2611;DHT22;5612;51.134;17.058;2023-06-26T14:10:49;40.20;1.00
2611;DHT22;5612;51.134;17.058;2023-06-26T14:13:18;39.80;1.00
2611;DHT22;5612;51.134;17.058;2023-06-26T14:15:50;39.50;1.00
2611;DHT22;5612;51.134;17.058;2023-06-26T14:18:21;39.40;1.00
2611;DHT22;5612;51.134;17.058;2023-06-26T14:20:52;39.40;1.00
2611;DHT22;5612;51.134;17.058;2023-06-26T14:23:21;39.70;1.00
2611;DHT22;5612;51.134;17.058;2023-06-26T14:25:51;39.40;1.00
2611;DHT22;5612;51.134;17.058;2023-06-26T14:28:21;39.10;1.00
2611;DHT22;5612;51.134;17.058;2023-06-26T14:30:50;39.00;1.00
2611;DHT22;5612;51.134;17.058;2023-06-26T14:33:19;38.90;1.00
2611;DHT22;5612;51.134;17.058;2023-06-26T14:35:48;38.80;1.00
2611;DHT22;5612;51.134;17.058;2023-06-26T14:38:17;38.40;1.00
2611;DHT22;5612;51.134;17.058;2023-06-26T14:40:47;38.20;1.00
2611;DHT22;5612;51.134;17.058;2023-06-26T14:43:19;38.20;1.00
2611;DHT22;5612;51.134;17.058;2023-06-26T14:45:48;37.70;1.00
2611;DHT22;5612;51.134;17.058;2023-06-26T14:48:18;36.70;1.00
2611;DHT22;5612;51.134;17.058;2023-06-26T14:50:48;36.20;1.00
2611;DHT22;5612;51.134;17.058;2023-06-26T14:53:18;36.40;1.00
2611;DHT22;5612;51.134;17.058;2023-06-26T14:55:47;36.20;1.00
2611;DHT22;5612;51.134;17.058;2023-06-26T14:58:16;34.90;1.00
2611;DHT22;5612;51.134;17.058;2023-06-26T15:00:46;34.50;1.00
2611;DHT22;5612;51.134;17.058;2023-06-26T15:03:15;34.20;1.00
2611;DHT22;5612;51.134;17.058;2023-06-26T15:05:44;34.10;1.00
2611;DHT22;5612;51.134;17.058;2023-06-26T15:08:12;34.30;1.00
2611;DHT22;5612;51.134;17.058;2023-06-26T15:10:41;34.50;1.00
2611;DHT22;5612;51.134;17.058;2023-06-26T15:13:10;34.40;1.00
2611;DHT22;5612;51.134;17.058;2023-06-26T15:15:38;34.30;1.00
2611;DHT22;5612;51.134;17.058;2023-06-26T15:18:08;33.80;1.00
2611;DHT22;5612;51.134;17.058;2023-06-26T15:20:37;33.20;1.00
2611;DHT22;5612;51.134;17.058;2023-06-26T15:23:08;32.60;1.00
2611;DHT22;5612;51.134;17.058;2023-06-26T15:25:37;32.70;1.00
2611;DHT22;5612;51.134;17.058;2023-06-26T15:28:06;32.50;1.00
2611;DHT22;5612;51.134;17.058;2023-06-26T15:30:36;32.50;1.00
2611;DHT22;5612;51.134;17.058;2023-06-26T15:33:05;32.10;1.00
2611;DHT22;5612;51.134;17.058;2023-06-26T15:35:35;32.10;1.00
2611;DHT22;5612;51.134;17.058;2023-06-26T15:38:04;31.60;1.00
2611;DHT22;5612;51.134;17.058;2023-06-26T15:40:33;31.30;1.00
2611;DHT22;5612;51.134;17.058;2023-06-26T15:43:03;31.20;1.00
2611;DHT22;5612;51.134;17.058;2023-06-26T15:45:32;31.20;1.00
2611;DHT22;5612;51.134;17.058;2023-06-26T15:48:01;30.70;1.00
2611;DHT22;5612;51.134;17.058;2023-06-26T15:50:30;30.60;1.00
2611;DHT22;5612;51.134;17.058;2023-06-26T15:53:02;30.60;1.00
2611;DHT22;5612;51.134;17.058;2023-06-26T15:55:31;30.60;1.00
2611;DHT22;5612;51.134;17.058;2023-06-26T15:58:00;30.50;1.00
2611;DHT22;5612;51.134;17.058;2023-06-26T16:00:29;30.60;1.00
2611;DHT22;5612;51.134;17.058;2023-06-26T16:02:59;30.50;1.00
2611;DHT22;5612;51.134;17.058;2023-06-26T16:05:28;30.60;1.00
2611;DHT22;5612;51.134;17.058;2023-06-26T16:07:57;30.60;1.00
2611;DHT22;5612;51.134;17.058;2023-06-26T16:10:27;30.50;1.00
2611;DHT22;5612;51.134;17.058;2023-06-26T16:12:56;30.50;1.00
2611;DHT22;5612;51.134;17.058;2023-06-26T16:15:25;30.30;1.00
2611;DHT22;5612;51.134;17.058;2023-06-26T16:17:55;30.40;1.00
2611;DHT22;5612;51.134;17.058;2023-06-26T16:20:24;30.10;1.00
2611;DHT22;5612;51.134;17.058;2023-06-26T16:22:53;30.30;1.00